Terminal Aerodrome Forecast
Issued by NWS Melbourne, FL

Home | Current Version | Previous Version | Text Only | Print | Product List | Glossary On
Versions: 1 2 3 4 5 6 7 8 9 10 11 12 13 14 15 16 17 18 19 20 21 22
000
FTUS42 KMLB 070025 AAA
TAFVRB
TAF AMD
KVRB 070025Z 0700/0724 10008KT P6SM SCT020 BKN060 BKN250
      TEMPO 0700/0701 33015G25KT 2SM TSRA BKN025CB OVC060
     FM070300 VRB04KT P6SM SCT030 SCT100 BKN250
     FM070500 VRB03KT P6SM FEW025 SCT250
     FM071600 10009KT P6SM SCT035 SCT250=

USA.gov is the U.S. government's official web portal to all federal, state and local government web resources and services.